sensor_id;sensor_type;location;lat;lon;timestamp;P1;durP1;ratioP1;P2;durP2;ratioP2
45326;SDS011;31062;49.678;24.560;2023-07-22T00:02:30;4.60;;;2.88;;
45326;SDS011;31062;49.678;24.560;2023-07-22T00:05:16;8.05;;;2.88;;
45326;SDS011;31062;49.678;24.560;2023-07-22T00:08:06;6.18;;;3.10;;
45326;SDS011;31062;49.678;24.560;2023-07-22T00:10:52;8.63;;;3.50;;
45326;SDS011;31062;49.678;24.560;2023-07-22T00:13:37;4.97;;;2.78;;
45326;SDS011;31062;49.678;24.560;2023-07-22T00:16:23;8.10;;;2.72;;
45326;SDS011;31062;49.678;24.560;2023-07-22T00:19:09;5.30;;;2.97;;
45326;SDS011;31062;49.678;24.560;2023-07-22T00:21:54;5.30;;;3.28;;
45326;SDS011;31062;49.678;24.560;2023-07-22T00:24:40;9.90;;;3.33;;
45326;SDS011;31062;49.678;24.560;2023-07-22T00:27:26;7.95;;;3.55;;
45326;SDS011;31062;49.678;24.560;2023-07-22T00:30:11;12.43;;;4.57;;
45326;SDS011;31062;49.678;24.560;2023-07-22T00:32:58;13.40;;;4.40;;
45326;SDS011;31062;49.678;24.560;2023-07-22T00:35:47;6.05;;;3.65;;
45326;SDS011;31062;49.678;24.560;2023-07-22T00:38:35;6.72;;;3.47;;
45326;SDS011;31062;49.678;24.560;2023-07-22T00:41:20;10.88;;;4.78;;
45326;SDS011;31062;49.678;24.560;2023-07-22T00:44:07;4.97;;;3.00;;
45326;SDS011;31062;49.678;24.560;2023-07-22T00:46:53;9.02;;;3.63;;
45326;SDS011;31062;49.678;24.560;2023-07-22T00:49:42;9.93;;;3.65;;
45326;SDS011;31062;49.678;24.560;2023-07-22T00:52:29;8.23;;;3.63;;
45326;SDS011;31062;49.678;24.560;2023-07-22T00:55:15;15.23;;;3.45;;
45326;SDS011;31062;49.678;24.560;2023-07-22T00:58:03;4.78;;;2.53;;
45326;SDS011;31062;49.678;24.560;2023-07-22T01:00:49;3.47;;;2.88;;
45326;SDS011;31062;49.678;24.560;2023-07-22T01:03:34;6.60;;;2.85;;
45326;SDS011;31062;49.678;24.560;2023-07-22T01:06:21;9.60;;;2.80;;
45326;SDS011;31062;49.678;24.560;2023-07-22T01:09:08;4.40;;;2.85;;
45326;SDS011;31062;49.678;24.560;2023-07-22T01:11:57;6.82;;;2.53;;
45326;SDS011;31062;49.678;24.560;2023-07-22T01:14:43;3.28;;;2.97;;
45326;SDS011;31062;49.678;24.560;2023-07-22T01:17:28;2.70;;;2.50;;
45326;SDS011;31062;49.678;24.560;2023-07-22T01:20:14;4.45;;;2.42;;
45326;SDS011;31062;49.678;24.560;2023-07-22T01:23:00;5.05;;;2.47;;
45326;SDS011;31062;49.678;24.560;2023-07-22T01:25:46;3.72;;;2.47;;
45326;SDS011;31062;49.678;24.560;2023-07-22T01:28:34;8.50;;;2.65;;
45326;SDS011;31062;49.678;24.560;2023-07-22T01:31:20;4.10;;;2.33;;
45326;SDS011;31062;49.678;24.560;2023-07-22T01:34:06;5.93;;;3.35;;
45326;SDS011;31062;49.678;24.560;2023-07-22T01:36:51;7.85;;;2.80;;
45326;SDS011;31062;49.678;24.560;2023-07-22T01:39:37;7.18;;;2.55;;
45326;SDS011;31062;49.678;24.560;2023-07-22T01:42:23;7.85;;;2.67;;
45326;SDS011;31062;49.678;24.560;2023-07-22T01:45:08;5.97;;;2.90;;
45326;SDS011;31062;49.678;24.560;2023-07-22T01:47:55;7.63;;;2.70;;
45326;SDS011;31062;49.678;24.560;2023-07-22T01:50:40;2.40;;;2.20;;
45326;SDS011;31062;49.678;24.560;2023-07-22T01:53:26;8.02;;;3.05;;
45326;SDS011;31062;49.678;24.560;2023-07-22T01:56:11;5.13;;;2.90;;
45326;SDS011;31062;49.678;24.560;2023-07-22T01:58:57;3.40;;;2.80;;
45326;SDS011;31062;49.678;24.560;2023-07-22T02:01:42;3.35;;;3.00;;
45326;SDS011;31062;49.678;24.560;2023-07-22T02:04:28;5.43;;;2.67;;
45326;SDS011;31062;49.678;24.560;2023-07-22T02:07:14;4.50;;;2.85;;
45326;SDS011;31062;49.678;24.560;2023-07-22T02:10:01;5.40;;;2.88;;
45326;SDS011;31062;49.678;24.560;2023-07-22T02:12:47;5.15;;;2.97;;
45326;SDS011;31062;49.678;24.560;2023-07-22T02:15:32;5.18;;;3.10;;
45326;SDS011;31062;49.678;24.560;2023-07-22T02:18:18;9.18;;;3.33;;
45326;SDS011;31062;49.678;24.560;2023-07-22T02:21:03;5.13;;;2.78;;
45326;SDS011;31062;49.678;24.560;2023-07-22T02:23:48;6.05;;;3.45;;
45326;SDS011;31062;49.678;24.560;2023-07-22T02:26:34;7.93;;;3.55;;
45326;SDS011;31062;49.678;24.560;2023-07-22T02:29:19;6.60;;;3.55;;
45326;SDS011;31062;49.678;24.560;2023-07-22T02:32:05;5.50;;;3.47;;
45326;SDS011;31062;49.678;24.560;2023-07-22T02:34:51;5.03;;;3.50;;
45326;SDS011;31062;49.678;24.560;2023-07-22T02:37:37;5.95;;;3.00;;
45326;SDS011;31062;49.678;24.560;2023-07-22T02:40:23;5.28;;;3.28;;
45326;SDS011;31062;49.678;24.560;2023-07-22T02:43:08;5.45;;;3.35;;
45326;SDS011;31062;49.678;24.560;2023-07-22T02:45:54;13.85;;;3.40;;
45326;SDS011;31062;49.678;24.560;2023-07-22T02:48:40;7.90;;;3.72;;
45326;SDS011;31062;49.678;24.560;2023-07-22T02:51:26;3.63;;;3.33;;
45326;SDS011;31062;49.678;24.560;2023-07-22T02:54:11;5.82;;;3.15;;
45326;SDS011;31062;49.678;24.560;2023-07-22T02:56:56;4.47;;;3.17;;
45326;SDS011;31062;49.678;24.560;2023-07-22T02:59:43;8.55;;;3.70;;
45326;SDS011;31062;49.678;24.560;2023-07-22T03:02:28;5.85;;;3.38;;
45326;SDS011;31062;49.678;24.560;2023-07-22T03:05:14;3.75;;;3.45;;
45326;SDS011;31062;49.678;24.560;2023-07-22T03:08:00;7.55;;;3.55;;
45326;SDS011;31062;49.678;24.560;2023-07-22T03:10:46;6.78;;;4.30;;
45326;SDS011;31062;49.678;24.560;2023-07-22T03:13:33;4.00;;;3.38;;
45326;SDS011;31062;49.678;24.560;2023-07-22T03:16:20;6.40;;;3.92;;
45326;SDS011;31062;49.678;24.560;2023-07-22T03:19:05;7.35;;;3.75;;
45326;SDS011;31062;49.678;24.560;2023-07-22T03:21:51;4.05;;;3.42;;
45326;SDS011;31062;49.678;24.560;2023-07-22T03:24:36;6.93;;;4.03;;
45326;SDS011;31062;49.678;24.560;2023-07-22T03:27:22;4.97;;;3.92;;
45326;SDS011;31062;49.678;24.560;2023-07-22T03:30:07;9.85;;;4.47;;
45326;SDS011;31062;49.678;24.560;2023-07-22T03:32:53;7.15;;;3.70;;
45326;SDS011;31062;49.678;24.560;2023-07-22T03:35:39;6.72;;;3.80;;
45326;SDS011;31062;49.678;24.560;2023-07-22T03:38:26;8.07;;;3.90;;
45326;SDS011;31062;49.678;24.560;2023-07-22T03:41:11;5.47;;;4.90;;
45326;SDS011;31062;49.678;24.560;2023-07-22T03:43:57;5.90;;;4.00;;
45326;SDS011;31062;49.678;24.560;2023-07-22T03:46:42;4.75;;;3.70;;
45326;SDS011;31062;49.678;24.560;2023-07-22T03:49:28;7.45;;;3.90;;
45326;SDS011;31062;49.678;24.560;2023-07-22T03:52:13;4.97;;;4.20;;
45326;SDS011;31062;49.678;24.560;2023-07-22T03:54:59;4.35;;;3.95;;
45326;SDS011;31062;49.678;24.560;2023-07-22T03:57:45;4.85;;;4.45;;
45326;SDS011;31062;49.678;24.560;2023-07-22T04:00:30;6.93;;;4.20;;
45326;SDS011;31062;49.678;24.560;2023-07-22T04:03:16;6.90;;;4.40;;
45326;SDS011;31062;49.678;24.560;2023-07-22T04:06:02;6.63;;;3.80;;
45326;SDS011;31062;49.678;24.560;2023-07-22T04:08:48;4.47;;;4.07;;
45326;SDS011;31062;49.678;24.560;2023-07-22T04:11:34;4.13;;;3.72;;
45326;SDS011;31062;49.678;24.560;2023-07-22T04:14:19;6.93;;;4.20;;
45326;SDS011;31062;49.678;24.560;2023-07-22T04:17:05;7.32;;;4.68;;
45326;SDS011;31062;49.678;24.560;2023-07-22T04:19:51;5.95;;;3.97;;
45326;SDS011;31062;49.678;24.560;2023-07-22T04:22:37;5.38;;;4.45;;
45326;SDS011;31062;49.678;24.560;2023-07-22T04:25:23;7.45;;;4.65;;
45326;SDS011;31062;49.678;24.560;2023-07-22T04:28:09;7.00;;;4.65;;
45326;SDS011;31062;49.678;24.560;2023-07-22T04:30:55;7.20;;;4.70;;
45326;SDS011;31062;49.678;24.560;2023-07-22T04:33:43;4.82;;;4.38;;
45326;SDS011;31062;49.678;24.560;2023-07-22T04:36:29;7.15;;;4.13;;
45326;SDS011;31062;49.678;24.560;2023-07-22T04:39:14;4.60;;;4.03;;
45326;SDS011;31062;49.678;24.560;2023-07-22T04:41:59;7.00;;;4.63;;
45326;SDS011;31062;49.678;24.560;2023-07-22T04:44:45;7.35;;;4.85;;
45326;SDS011;31062;49.678;24.560;2023-07-22T04:47:30;5.78;;;5.15;;
45326;SDS011;31062;49.678;24.560;2023-07-22T04:50:16;5.95;;;4.65;;
45326;SDS011;31062;49.678;24.560;2023-07-22T04:53:05;7.15;;;4.25;;
45326;SDS011;31062;49.678;24.560;2023-07-22T04:55:50;8.95;;;4.03;;
45326;SDS011;31062;49.678;24.560;2023-07-22T04:58:36;5.25;;;4.05;;
45326;SDS011;31062;49.678;24.560;2023-07-22T05:01:21;7.10;;;4.63;;
45326;SDS011;31062;49.678;24.560;2023-07-22T05:04:08;4.70;;;4.05;;
45326;SDS011;31062;49.678;24.560;2023-07-22T05:06:53;4.95;;;4.45;;
45326;SDS011;31062;49.678;24.560;2023-07-22T05:09:39;8.80;;;4.10;;
45326;SDS011;31062;49.678;24.560;2023-07-22T05:12:24;8.63;;;4.40;;
45326;SDS011;31062;49.678;24.560;2023-07-22T05:15:10;7.10;;;4.32;;
45326;SDS011;31062;49.678;24.560;2023-07-22T05:17:56;4.93;;;4.20;;
45326;SDS011;31062;49.678;24.560;2023-07-22T05:20:42;6.32;;;5.35;;
45326;SDS011;31062;49.678;24.560;2023-07-22T05:23:27;6.05;;;4.80;;
45326;SDS011;31062;49.678;24.560;2023-07-22T05:26:13;5.85;;;5.32;;
45326;SDS011;31062;49.678;24.560;2023-07-22T05:28:58;6.22;;;5.40;;
45326;SDS011;31062;49.678;24.560;2023-07-22T05:31:44;7.70;;;5.78;;
45326;SDS011;31062;49.678;24.560;2023-07-22T05:34:30;5.43;;;4.88;;
45326;SDS011;31062;49.678;24.560;2023-07-22T05:37:15;6.15;;;5.30;;
45326;SDS011;31062;49.678;24.560;2023-07-22T05:40:00;7.80;;;6.65;;
45326;SDS011;31062;49.678;24.560;2023-07-22T05:42:46;7.88;;;6.05;;
45326;SDS011;31062;49.678;24.560;2023-07-22T05:45:32;11.95;;;6.15;;
45326;SDS011;31062;49.678;24.560;2023-07-22T05:48:17;6.97;;;5.88;;
45326;SDS011;31062;49.678;24.560;2023-07-22T05:51:03;7.47;;;6.35;;
45326;SDS011;31062;49.678;24.560;2023-07-22T05:53:48;8.60;;;6.03;;
45326;SDS011;31062;49.678;24.560;2023-07-22T05:56:34;7.13;;;5.95;;
45326;SDS011;31062;49.678;24.560;2023-07-22T05:59:19;8.18;;;5.53;;
45326;SDS011;31062;49.678;24.560;2023-07-22T06:02:07;8.80;;;5.25;;
45326;SDS011;31062;49.678;24.560;2023-07-22T06:04:54;11.18;;;5.60;;
45326;SDS011;31062;49.678;24.560;2023-07-22T06:07:39;7.80;;;6.05;;
45326;SDS011;31062;49.678;24.560;2023-07-22T06:10:25;10.27;;;7.00;;
45326;SDS011;31062;49.678;24.560;2023-07-22T06:13:10;11.98;;;6.60;;
45326;SDS011;31062;49.678;24.560;2023-07-22T06:15:56;7.47;;;6.15;;
45326;SDS011;31062;49.678;24.560;2023-07-22T06:18:41;9.02;;;6.28;;
45326;SDS011;31062;49.678;24.560;2023-07-22T06:21:27;9.50;;;6.50;;
45326;SDS011;31062;49.678;24.560;2023-07-22T06:24:12;8.75;;;6.32;;
45326;SDS011;31062;49.678;24.560;2023-07-22T06:26:58;12.05;;;6.50;;
45326;SDS011;31062;49.678;24.560;2023-07-22T06:29:43;8.63;;;6.47;;
45326;SDS011;31062;49.678;24.560;2023-07-22T06:32:29;7.68;;;6.28;;
45326;SDS011;31062;49.678;24.560;2023-07-22T06:35:15;8.30;;;6.13;;
45326;SDS011;31062;49.678;24.560;2023-07-22T06:38:01;9.07;;;6.45;;
45326;SDS011;31062;49.678;24.560;2023-07-22T06:40:46;9.05;;;6.97;;
45326;SDS011;31062;49.678;24.560;2023-07-22T06:43:32;9.00;;;5.75;;
45326;SDS011;31062;49.678;24.560;2023-07-22T06:46:17;5.03;;;4.53;;
45326;SDS011;31062;49.678;24.560;2023-07-22T06:49:03;3.67;;;3.38;;
45326;SDS011;31062;49.678;24.560;2023-07-22T06:51:49;4.25;;;3.67;;
45326;SDS011;31062;49.678;24.560;2023-07-22T06:54:35;3.90;;;3.58;;
45326;SDS011;31062;49.678;24.560;2023-07-22T06:57:21;4.18;;;2.90;;
45326;SDS011;31062;49.678;24.560;2023-07-22T07:00:07;3.70;;;3.40;;
45326;SDS011;31062;49.678;24.560;2023-07-22T07:02:55;3.55;;;3.30;;
45326;SDS011;31062;49.678;24.560;2023-07-22T07:05:40;4.65;;;3.42;;
45326;SDS011;31062;49.678;24.560;2023-07-22T07:08:26;3.20;;;2.83;;
45326;SDS011;31062;49.678;24.560;2023-07-22T07:11:12;3.60;;;3.30;;
45326;SDS011;31062;49.678;24.560;2023-07-22T07:13:58;3.55;;;3.10;;
45326;SDS011;31062;49.678;24.560;2023-07-22T07:16:43;3.63;;;2.95;;
45326;SDS011;31062;49.678;24.560;2023-07-22T07:19:30;3.42;;;3.05;;
45326;SDS011;31062;49.678;24.560;2023-07-22T07:22:16;3.47;;;3.10;;
45326;SDS011;31062;49.678;24.560;2023-07-22T07:25:02;3.22;;;2.92;;
45326;SDS011;31062;49.678;24.560;2023-07-22T07:27:48;3.33;;;3.10;;
45326;SDS011;31062;49.678;24.560;2023-07-22T07:30:33;4.05;;;2.63;;
45326;SDS011;31062;49.678;24.560;2023-07-22T07:33:19;5.10;;;2.47;;
45326;SDS011;31062;49.678;24.560;2023-07-22T07:36:04;3.15;;;2.85;;
45326;SDS011;31062;49.678;24.560;2023-07-22T07:38:50;3.58;;;2.85;;
45326;SDS011;31062;49.678;24.560;2023-07-22T07:41:36;2.58;;;2.38;;
45326;SDS011;31062;49.678;24.560;2023-07-22T07:44:23;4.13;;;2.47;;
45326;SDS011;31062;49.678;24.560;2023-07-22T07:47:08;3.65;;;2.40;;
45326;SDS011;31062;49.678;24.560;2023-07-22T07:49:53;2.38;;;2.15;;
45326;SDS011;31062;49.678;24.560;2023-07-22T07:52:39;2.47;;;2.28;;
45326;SDS011;31062;49.678;24.560;2023-07-22T07:55:25;2.88;;;2.67;;
45326;SDS011;31062;49.678;24.560;2023-07-22T07:58:10;3.78;;;3.00;;
45326;SDS011;31062;49.678;24.560;2023-07-22T08:00:56;3.15;;;2.17;;
45326;SDS011;31062;49.678;24.560;2023-07-22T08:03:42;2.42;;;2.22;;
45326;SDS011;31062;49.678;24.560;2023-07-22T08:06:28;3.22;;;2.35;;
45326;SDS011;31062;49.678;24.560;2023-07-22T08:09:13;2.95;;;2.35;;
45326;SDS011;31062;49.678;24.560;2023-07-22T08:12:04;2.17;;;2.03;;
45326;SDS011;31062;49.678;24.560;2023-07-22T08:14:52;2.67;;;2.40;;
45326;SDS011;31062;49.678;24.560;2023-07-22T08:17:38;3.53;;;2.58;;
45326;SDS011;31062;49.678;24.560;2023-07-22T08:20:24;2.50;;;2.30;;
45326;SDS011;31062;49.678;24.560;2023-07-22T08:23:09;5.50;;;2.00;;
45326;SDS011;31062;49.678;24.560;2023-07-22T08:25:56;3.33;;;2.20;;
45326;SDS011;31062;49.678;24.560;2023-07-22T08:28:42;2.10;;;1.90;;
45326;SDS011;31062;49.678;24.560;2023-07-22T08:31:27;3.40;;;2.22;;
45326;SDS011;31062;49.678;24.560;2023-07-22T08:34:13;3.33;;;2.00;;
45326;SDS011;31062;49.678;24.560;2023-07-22T08:36:58;3.25;;;2.30;;
45326;SDS011;31062;49.678;24.560;2023-07-22T08:39:44;4.78;;;2.40;;
45326;SDS011;31062;49.678;24.560;2023-07-22T08:42:29;4.35;;;2.25;;
45326;SDS011;31062;49.678;24.560;2023-07-22T08:45:19;3.30;;;2.28;;
45326;SDS011;31062;49.678;24.560;2023-07-22T08:48:06;1.90;;;1.80;;
45326;SDS011;31062;49.678;24.560;2023-07-22T08:51:02;3.10;;;2.10;;
45326;SDS011;31062;49.678;24.560;2023-07-22T08:53:52;3.70;;;2.38;;
45326;SDS011;31062;49.678;24.560;2023-07-22T08:56:53;2.55;;;2.35;;
45326;SDS011;31062;49.678;24.560;2023-07-22T08:59:41;4.85;;;2.05;;
45326;SDS011;31062;49.678;24.560;2023-07-22T09:02:26;3.03;;;2.70;;
45326;SDS011;31062;49.678;24.560;2023-07-22T09:05:13;2.70;;;2.22;;
45326;SDS011;31062;49.678;24.560;2023-07-22T09:07:59;3.67;;;2.20;;
45326;SDS011;31062;49.678;24.560;2023-07-22T09:10:47;2.88;;;2.25;;
45326;SDS011;31062;49.678;24.560;2023-07-22T09:13:33;3.30;;;2.67;;
45326;SDS011;31062;49.678;24.560;2023-07-22T09:16:20;3.38;;;2.17;;
45326;SDS011;31062;49.678;24.560;2023-07-22T09:19:06;2.55;;;2.35;;
45326;SDS011;31062;49.678;24.560;2023-07-22T09:21:52;5.10;;;2.30;;
45326;SDS011;31062;49.678;24.560;2023-07-22T09:24:37;4.70;;;2.33;;
45326;SDS011;31062;49.678;24.560;2023-07-22T09:27:32;2.80;;;2.60;;
45326;SDS011;31062;49.678;24.560;2023-07-22T09:30:24;2.22;;;2.13;;
45326;SDS011;31062;49.678;24.560;2023-07-22T09:33:21;7.57;;;2.65;;
45326;SDS011;31062;49.678;24.560;2023-07-22T09:36:09;3.42;;;2.53;;
45326;SDS011;31062;49.678;24.560;2023-07-22T09:38:59;3.75;;;2.25;;
45326;SDS011;31062;49.678;24.560;2023-07-22T09:41:49;2.28;;;2.10;;
45326;SDS011;31062;49.678;24.560;2023-07-22T09:44:35;2.25;;;2.08;;
45326;SDS011;31062;49.678;24.560;2023-07-22T09:47:23;5.93;;;2.53;;
45326;SDS011;31062;49.678;24.560;2023-07-22T09:50:16;3.08;;;2.75;;
45326;SDS011;31062;49.678;24.560;2023-07-22T09:53:04;7.30;;;2.50;;
45326;SDS011;31062;49.678;24.560;2023-07-22T09:55:49;2.83;;;2.45;;
45326;SDS011;31062;49.678;24.560;2023-07-22T09:58:38;5.30;;;3.08;;
45326;SDS011;31062;49.678;24.560;2023-07-22T10:01:24;3.42;;;2.83;;
45326;SDS011;31062;49.678;24.560;2023-07-22T10:04:11;3.28;;;2.70;;
45326;SDS011;31062;49.678;24.560;2023-07-22T10:07:00;4.55;;;4.15;;
45326;SDS011;31062;49.678;24.560;2023-07-22T10:09:47;3.40;;;3.10;;
45326;SDS011;31062;49.678;24.560;2023-07-22T10:12:34;4.18;;;3.83;;
45326;SDS011;31062;49.678;24.560;2023-07-22T10:15:20;7.43;;;3.05;;
45326;SDS011;31062;49.678;24.560;2023-07-22T10:18:05;6.07;;;3.03;;
45326;SDS011;31062;49.678;24.560;2023-07-22T10:20:51;3.22;;;2.85;;
45326;SDS011;31062;49.678;24.560;2023-07-22T10:23:38;3.40;;;2.75;;
45326;SDS011;31062;49.678;24.560;2023-07-22T10:26:25;3.10;;;2.80;;
45326;SDS011;31062;49.678;24.560;2023-07-22T10:29:30;3.58;;;2.63;;
45326;SDS011;31062;49.678;24.560;2023-07-22T10:32:18;3.78;;;2.85;;
45326;SDS011;31062;49.678;24.560;2023-07-22T10:35:04;2.90;;;2.55;;
45326;SDS011;31062;49.678;24.560;2023-07-22T10:37:54;4.43;;;2.63;;
45326;SDS011;31062;49.678;24.560;2023-07-22T10:40:52;2.97;;;2.47;;
45326;SDS011;31062;49.678;24.560;2023-07-22T10:43:39;2.58;;;2.38;;
45326;SDS011;31062;49.678;24.560;2023-07-22T10:49:27;3.70;;;2.67;;
45326;SDS011;31062;49.678;24.560;2023-07-22T10:52:38;2.75;;;2.55;;
45326;SDS011;31062;49.678;24.560;2023-07-22T10:55:28;2.70;;;2.50;;
45326;SDS011;31062;49.678;24.560;2023-07-22T10:58:14;5.05;;;2.67;;
45326;SDS011;31062;49.678;24.560;2023-07-22T11:01:20;5.80;;;2.90;;
45326;SDS011;31062;49.678;24.560;2023-07-22T11:07:05;3.05;;;2.83;;
45326;SDS011;31062;49.678;24.560;2023-07-22T11:09:51;3.53;;;2.85;;
45326;SDS011;31062;49.678;24.560;2023-07-22T11:12:39;3.58;;;2.65;;
45326;SDS011;31062;49.678;24.560;2023-07-22T11:15:27;3.47;;;2.40;;
45326;SDS011;31062;49.678;24.560;2023-07-22T11:18:14;2.85;;;2.65;;
45326;SDS011;31062;49.678;24.560;2023-07-22T11:21:00;2.42;;;2.28;;
45326;SDS011;31062;49.678;24.560;2023-07-22T11:23:45;2.40;;;2.20;;
45326;SDS011;31062;49.678;24.560;2023-07-22T11:26:31;3.90;;;2.85;;
45326;SDS011;31062;49.678;24.560;2023-07-22T11:29:17;2.47;;;2.22;;
45326;SDS011;31062;49.678;24.560;2023-07-22T11:32:03;2.92;;;2.58;;
45326;SDS011;31062;49.678;24.560;2023-07-22T11:34:51;3.30;;;2.60;;
45326;SDS011;31062;49.678;24.560;2023-07-22T11:37:38;3.78;;;2.20;;
45326;SDS011;31062;49.678;24.560;2023-07-22T11:40:32;3.42;;;3.13;;
45326;SDS011;31062;49.678;24.560;2023-07-22T11:43:18;6.30;;;2.67;;
45326;SDS011;31062;49.678;24.560;2023-07-22T11:48:56;3.58;;;2.60;;
45326;SDS011;31062;49.678;24.560;2023-07-22T11:51:42;2.42;;;2.22;;
45326;SDS011;31062;49.678;24.560;2023-07-22T11:54:28;4.38;;;2.35;;
45326;SDS011;31062;49.678;24.560;2023-07-22T11:57:16;3.25;;;2.53;;
45326;SDS011;31062;49.678;24.560;2023-07-22T12:00:02;5.00;;;2.55;;
45326;SDS011;31062;49.678;24.560;2023-07-22T12:02:48;3.03;;;2.72;;
45326;SDS011;31062;49.678;24.560;2023-07-22T12:05:35;3.13;;;2.50;;
45326;SDS011;31062;49.678;24.560;2023-07-22T12:08:22;5.43;;;2.85;;
45326;SDS011;31062;49.678;24.560;2023-07-22T12:11:08;3.35;;;2.35;;
45326;SDS011;31062;49.678;24.560;2023-07-22T12:17:00;2.53;;;2.33;;
45326;SDS011;31062;49.678;24.560;2023-07-22T12:19:51;3.78;;;2.25;;
45326;SDS011;31062;49.678;24.560;2023-07-22T12:22:39;4.55;;;2.47;;
45326;SDS011;31062;49.678;24.560;2023-07-22T12:25:24;3.88;;;2.22;;
45326;SDS011;31062;49.678;24.560;2023-07-22T12:28:10;2.20;;;2.00;;
45326;SDS011;31062;49.678;24.560;2023-07-22T12:30:56;3.50;;;2.13;;
45326;SDS011;31062;49.678;24.560;2023-07-22T12:33:44;3.05;;;2.25;;
45326;SDS011;31062;49.678;24.560;2023-07-22T12:36:31;2.28;;;2.08;;
45326;SDS011;31062;49.678;24.560;2023-07-22T12:39:16;3.90;;;2.33;;
45326;SDS011;31062;49.678;24.560;2023-07-22T12:42:02;7.28;;;2.20;;
45326;SDS011;31062;49.678;24.560;2023-07-22T12:44:48;3.00;;;2.35;;
45326;SDS011;31062;49.678;24.560;2023-07-22T12:47:34;6.32;;;2.30;;
45326;SDS011;31062;49.678;24.560;2023-07-22T12:50:21;4.70;;;2.58;;
45326;SDS011;31062;49.678;24.560;2023-07-22T12:53:07;2.13;;;1.92;;
45326;SDS011;31062;49.678;24.560;2023-07-22T12:55:54;2.45;;;2.25;;
45326;SDS011;31062;49.678;24.560;2023-07-22T12:58:40;2.65;;;1.95;;
45326;SDS011;31062;49.678;24.560;2023-07-22T13:01:26;3.10;;;2.58;;
45326;SDS011;31062;49.678;24.560;2023-07-22T13:04:12;2.30;;;2.10;;
45326;SDS011;31062;49.678;24.560;2023-07-22T13:06:58;2.17;;;1.98;;
45326;SDS011;31062;49.678;24.560;2023-07-22T13:09:43;2.50;;;2.30;;
45326;SDS011;31062;49.678;24.560;2023-07-22T13:12:35;2.42;;;2.22;;
45326;SDS011;31062;49.678;24.560;2023-07-22T13:15:20;2.55;;;2.35;;
45326;SDS011;31062;49.678;24.560;2023-07-22T13:18:06;3.53;;;2.92;;
45326;SDS011;31062;49.678;24.560;2023-07-22T13:20:53;2.92;;;2.50;;
45326;SDS011;31062;49.678;24.560;2023-07-22T13:23:38;3.35;;;2.70;;
45326;SDS011;31062;49.678;24.560;2023-07-22T13:26:24;3.88;;;2.67;;
45326;SDS011;31062;49.678;24.560;2023-07-22T13:29:09;5.80;;;2.65;;
45326;SDS011;31062;49.678;24.560;2023-07-22T13:31:55;2.53;;;2.33;;
45326;SDS011;31062;49.678;24.560;2023-07-22T13:34:40;3.33;;;2.20;;
45326;SDS011;31062;49.678;24.560;2023-07-22T13:37:26;3.67;;;2.08;;
45326;SDS011;31062;49.678;24.560;2023-07-22T13:40:11;2.70;;;2.45;;
45326;SDS011;31062;49.678;24.560;2023-07-22T13:42:58;4.40;;;2.13;;
45326;SDS011;31062;49.678;24.560;2023-07-22T13:45:43;4.03;;;2.20;;
45326;SDS011;31062;49.678;24.560;2023-07-22T13:48:29;2.30;;;2.10;;
45326;SDS011;31062;49.678;24.560;2023-07-22T13:51:15;3.53;;;2.50;;
45326;SDS011;31062;49.678;24.560;2023-07-22T13:54:00;3.30;;;2.38;;
45326;SDS011;31062;49.678;24.560;2023-07-22T13:56:45;4.32;;;2.05;;
45326;SDS011;31062;49.678;24.560;2023-07-22T13:59:32;2.50;;;2.30;;
45326;SDS011;31062;49.678;24.560;2023-07-22T14:02:18;4.07;;;2.08;;
45326;SDS011;31062;49.678;24.560;2023-07-22T14:05:04;2.72;;;2.30;;
45326;SDS011;31062;49.678;24.560;2023-07-22T14:07:50;3.75;;;2.28;;
45326;SDS011;31062;49.678;24.560;2023-07-22T14:10:36;2.38;;;2.17;;
45326;SDS011;31062;49.678;24.560;2023-07-22T14:13:22;2.67;;;2.00;;
45326;SDS011;31062;49.678;24.560;2023-07-22T14:16:07;3.60;;;2.20;;
45326;SDS011;31062;49.678;24.560;2023-07-22T14:19:07;2.28;;;2.10;;
45326;SDS011;31062;49.678;24.560;2023-07-22T14:21:53;2.33;;;2.10;;
45326;SDS011;31062;49.678;24.560;2023-07-22T14:24:39;3.08;;;2.20;;
45326;SDS011;31062;49.678;24.560;2023-07-22T14:27:24;3.60;;;2.25;;
45326;SDS011;31062;49.678;24.560;2023-07-22T14:30:10;2.40;;;2.15;;
45326;SDS011;31062;49.678;24.560;2023-07-22T14:32:55;3.95;;;2.03;;
45326;SDS011;31062;49.678;24.560;2023-07-22T14:35:41;4.22;;;2.20;;
45326;SDS011;31062;49.678;24.560;2023-07-22T14:38:27;2.70;;;2.10;;
45326;SDS011;31062;49.678;24.560;2023-07-22T14:41:13;2.67;;;2.00;;
45326;SDS011;31062;49.678;24.560;2023-07-22T14:43:59;4.70;;;2.45;;
45326;SDS011;31062;49.678;24.560;2023-07-22T14:46:45;4.63;;;2.30;;
45326;SDS011;31062;49.678;24.560;2023-07-22T14:49:30;3.58;;;2.40;;
45326;SDS011;31062;49.678;24.560;2023-07-22T14:52:16;3.17;;;2.17;;
45326;SDS011;31062;49.678;24.560;2023-07-22T14:55:03;3.53;;;2.33;;
45326;SDS011;31062;49.678;24.560;2023-07-22T14:57:48;5.47;;;1.90;;
45326;SDS011;31062;49.678;24.560;2023-07-22T15:00:34;4.38;;;2.45;;
45326;SDS011;31062;49.678;24.560;2023-07-22T15:03:20;3.25;;;2.15;;
45326;SDS011;31062;49.678;24.560;2023-07-22T15:06:05;4.63;;;2.10;;
45326;SDS011;31062;49.678;24.560;2023-07-22T15:08:52;3.67;;;2.63;;
45326;SDS011;31062;49.678;24.560;2023-07-22T15:11:37;2.70;;;2.22;;
45326;SDS011;31062;49.678;24.560;2023-07-22T15:14:23;3.65;;;2.17;;
45326;SDS011;31062;49.678;24.560;2023-07-22T15:17:09;2.67;;;2.28;;
45326;SDS011;31062;49.678;24.560;2023-07-22T15:19:55;4.60;;;2.40;;
45326;SDS011;31062;49.678;24.560;2023-07-22T15:22:40;8.13;;;2.20;;
45326;SDS011;31062;49.678;24.560;2023-07-22T15:25:26;5.53;;;2.83;;
45326;SDS011;31062;49.678;24.560;2023-07-22T15:28:12;2.83;;;2.40;;
45326;SDS011;31062;49.678;24.560;2023-07-22T15:30:57;4.72;;;2.80;;
45326;SDS011;31062;49.678;24.560;2023-07-22T15:33:43;2.67;;;2.47;;
45326;SDS011;31062;49.678;24.560;2023-07-22T15:36:29;3.63;;;2.70;;
45326;SDS011;31062;49.678;24.560;2023-07-22T15:39:14;7.72;;;2.80;;
45326;SDS011;31062;49.678;24.560;2023-07-22T15:41:59;4.82;;;2.55;;
45326;SDS011;31062;49.678;24.560;2023-07-22T15:44:45;3.03;;;2.72;;
45326;SDS011;31062;49.678;24.560;2023-07-22T15:47:31;5.47;;;2.10;;
45326;SDS011;31062;49.678;24.560;2023-07-22T15:50:16;3.60;;;2.80;;
45326;SDS011;31062;49.678;24.560;2023-07-22T15:53:02;2.45;;;2.20;;
45326;SDS011;31062;49.678;24.560;2023-07-22T15:55:48;5.13;;;2.53;;
45326;SDS011;31062;49.678;24.560;2023-07-22T15:58:34;2.72;;;2.20;;
45326;SDS011;31062;49.678;24.560;2023-07-22T16:01:22;2.42;;;2.22;;
45326;SDS011;31062;49.678;24.560;2023-07-22T16:04:08;3.38;;;2.35;;
45326;SDS011;31062;49.678;24.560;2023-07-22T16:06:53;2.90;;;2.50;;
45326;SDS011;31062;49.678;24.560;2023-07-22T16:09:39;3.88;;;2.55;;
45326;SDS011;31062;49.678;24.560;2023-07-22T16:12:25;2.00;;;1.80;;
45326;SDS011;31062;49.678;24.560;2023-07-22T16:15:11;3.40;;;2.17;;
45326;SDS011;31062;49.678;24.560;2023-07-22T16:17:57;6.47;;;2.15;;
45326;SDS011;31062;49.678;24.560;2023-07-22T16:20:42;3.10;;;2.40;;
45326;SDS011;31062;49.678;24.560;2023-07-22T16:23:28;2.60;;;2.22;;
45326;SDS011;31062;49.678;24.560;2023-07-22T16:26:17;4.97;;;2.28;;
45326;SDS011;31062;49.678;24.560;2023-07-22T16:29:05;6.65;;;2.35;;
45326;SDS011;31062;49.678;24.560;2023-07-22T16:31:51;2.60;;;2.15;;
45326;SDS011;31062;49.678;24.560;2023-07-22T16:34:36;2.38;;;2.17;;
45326;SDS011;31062;49.678;24.560;2023-07-22T16:37:23;3.70;;;2.40;;
45326;SDS011;31062;49.678;24.560;2023-07-22T16:40:09;5.93;;;3.03;;